sensor_id;sensor_type;location;lat;lon;timestamp;P1;durP1;ratioP1;P2;durP2;ratioP2
20393;SDS011;10356;50.544;9.642;2023-02-15T00:00:25;61.97;;;20.17;;
20393;SDS011;10356;50.544;9.642;2023-02-15T00:02:51;79.20;;;22.47;;
20393;SDS011;10356;50.544;9.642;2023-02-15T00:05:18;76.17;;;22.67;;
20393;SDS011;10356;50.544;9.642;2023-02-15T00:07:44;57.80;;;21.33;;
20393;SDS011;10356;50.544;9.642;2023-02-15T00:10:12;58.40;;;21.97;;
20393;SDS011;10356;50.544;9.642;2023-02-15T00:12:39;58.80;;;20.47;;
20393;SDS011;10356;50.544;9.642;2023-02-15T00:15:05;60.03;;;22.77;;
20393;SDS011;10356;50.544;9.642;2023-02-15T00:17:32;53.23;;;20.17;;
20393;SDS011;10356;50.544;9.642;2023-02-15T00:19:59;56.33;;;20.87;;
20393;SDS011;10356;50.544;9.642;2023-02-15T00:22:25;57.00;;;21.57;;
20393;SDS011;10356;50.544;9.642;2023-02-15T00:24:52;80.07;;;24.37;;
20393;SDS011;10356;50.544;9.642;2023-02-15T00:27:19;59.37;;;22.53;;
20393;SDS011;10356;50.544;9.642;2023-02-15T00:29:46;64.53;;;24.47;;
20393;SDS011;10356;50.544;9.642;2023-02-15T00:32:13;67.03;;;24.20;;
20393;SDS011;10356;50.544;9.642;2023-02-15T00:34:39;57.17;;;22.03;;
20393;SDS011;10356;50.544;9.642;2023-02-15T00:37:05;55.53;;;22.30;;
20393;SDS011;10356;50.544;9.642;2023-02-15T00:39:32;55.50;;;21.60;;
20393;SDS011;10356;50.544;9.642;2023-02-15T00:41:58;51.80;;;21.37;;
20393;SDS011;10356;50.544;9.642;2023-02-15T00:44:26;51.33;;;20.57;;
20393;SDS011;10356;50.544;9.642;2023-02-15T00:46:53;52.00;;;21.73;;
20393;SDS011;10356;50.544;9.642;2023-02-15T00:49:19;49.47;;;20.30;;
20393;SDS011;10356;50.544;9.642;2023-02-15T00:51:46;41.57;;;19.03;;
20393;SDS011;10356;50.544;9.642;2023-02-15T00:54:12;39.67;;;17.97;;
20393;SDS011;10356;50.544;9.642;2023-02-15T00:56:39;39.03;;;18.07;;
20393;SDS011;10356;50.544;9.642;2023-02-15T00:59:05;36.53;;;16.23;;
20393;SDS011;10356;50.544;9.642;2023-02-15T01:01:33;37.23;;;16.73;;
20393;SDS011;10356;50.544;9.642;2023-02-15T01:04:00;32.23;;;15.10;;
20393;SDS011;10356;50.544;9.642;2023-02-15T01:06:27;32.77;;;15.53;;
20393;SDS011;10356;50.544;9.642;2023-02-15T01:08:53;31.90;;;15.23;;
20393;SDS011;10356;50.544;9.642;2023-02-15T01:11:21;33.57;;;16.27;;
20393;SDS011;10356;50.544;9.642;2023-02-15T01:13:49;35.17;;;16.10;;
20393;SDS011;10356;50.544;9.642;2023-02-15T01:16:16;28.43;;;14.40;;
20393;SDS011;10356;50.544;9.642;2023-02-15T01:18:44;31.43;;;14.70;;
20393;SDS011;10356;50.544;9.642;2023-02-15T01:21:11;33.10;;;15.30;;
20393;SDS011;10356;50.544;9.642;2023-02-15T01:23:38;32.53;;;15.30;;
20393;SDS011;10356;50.544;9.642;2023-02-15T01:26:05;29.23;;;14.27;;
20393;SDS011;10356;50.544;9.642;2023-02-15T01:28:33;30.13;;;13.80;;
20393;SDS011;10356;50.544;9.642;2023-02-15T01:31:03;32.70;;;14.70;;
20393;SDS011;10356;50.544;9.642;2023-02-15T01:33:30;27.57;;;13.50;;
20393;SDS011;10356;50.544;9.642;2023-02-15T01:35:58;27.43;;;13.17;;
20393;SDS011;10356;50.544;9.642;2023-02-15T01:38:25;26.07;;;12.50;;
20393;SDS011;10356;50.544;9.642;2023-02-15T01:40:52;31.73;;;13.83;;
20393;SDS011;10356;50.544;9.642;2023-02-15T01:43:19;28.67;;;15.03;;
20393;SDS011;10356;50.544;9.642;2023-02-15T01:45:45;33.17;;;16.23;;
20393;SDS011;10356;50.544;9.642;2023-02-15T01:48:17;26.47;;;14.23;;
20393;SDS011;10356;50.544;9.642;2023-02-15T01:50:47;29.47;;;15.20;;
20393;SDS011;10356;50.544;9.642;2023-02-15T01:53:19;29.77;;;13.40;;
20393;SDS011;10356;50.544;9.642;2023-02-15T01:55:50;25.63;;;13.23;;
20393;SDS011;10356;50.544;9.642;2023-02-15T01:58:21;28.87;;;14.00;;
20393;SDS011;10356;50.544;9.642;2023-02-15T02:00:48;24.10;;;13.00;;
20393;SDS011;10356;50.544;9.642;2023-02-15T02:03:15;27.77;;;14.10;;
20393;SDS011;10356;50.544;9.642;2023-02-15T02:05:42;27.97;;;13.20;;
20393;SDS011;10356;50.544;9.642;2023-02-15T02:08:08;25.07;;;12.80;;
20393;SDS011;10356;50.544;9.642;2023-02-15T02:10:37;27.13;;;13.80;;
20393;SDS011;10356;50.544;9.642;2023-02-15T02:13:04;29.10;;;14.97;;
20393;SDS011;10356;50.544;9.642;2023-02-15T02:15:33;28.93;;;14.70;;
20393;SDS011;10356;50.544;9.642;2023-02-15T02:18:11;25.80;;;13.63;;
20393;SDS011;10356;50.544;9.642;2023-02-15T02:23:40;27.33;;;14.20;;
20393;SDS011;10356;50.544;9.642;2023-02-15T02:32:27;22.50;;;11.70;;
20393;SDS011;10356;50.544;9.642;2023-02-15T02:35:15;27.70;;;13.27;;
20393;SDS011;10356;50.544;9.642;2023-02-15T02:37:49;27.40;;;13.17;;
20393;SDS011;10356;50.544;9.642;2023-02-15T02:40:23;25.40;;;13.17;;
20393;SDS011;10356;50.544;9.642;2023-02-15T02:42:56;23.53;;;12.50;;
20393;SDS011;10356;50.544;9.642;2023-02-15T02:45:28;27.40;;;12.97;;
20393;SDS011;10356;50.544;9.642;2023-02-15T02:48:03;28.63;;;13.43;;
20393;SDS011;10356;50.544;9.642;2023-02-15T02:50:34;24.30;;;12.60;;
20393;SDS011;10356;50.544;9.642;2023-02-15T02:53:00;28.03;;;13.50;;
20393;SDS011;10356;50.544;9.642;2023-02-15T02:55:28;28.30;;;13.57;;
20393;SDS011;10356;50.544;9.642;2023-02-15T02:57:57;26.43;;;13.10;;
20393;SDS011;10356;50.544;9.642;2023-02-15T03:00:29;23.70;;;12.00;;
20393;SDS011;10356;50.544;9.642;2023-02-15T03:03:00;24.70;;;11.97;;
20393;SDS011;10356;50.544;9.642;2023-02-15T03:05:30;23.23;;;12.77;;
20393;SDS011;10356;50.544;9.642;2023-02-15T03:07:59;25.03;;;12.80;;
20393;SDS011;10356;50.544;9.642;2023-02-15T03:10:31;23.10;;;12.13;;
20393;SDS011;10356;50.544;9.642;2023-02-15T03:13:00;23.87;;;12.20;;
20393;SDS011;10356;50.544;9.642;2023-02-15T03:15:28;24.67;;;12.80;;
20393;SDS011;10356;50.544;9.642;2023-02-15T03:18:20;22.93;;;11.87;;
20393;SDS011;10356;50.544;9.642;2023-02-15T03:20:49;23.90;;;12.10;;
20393;SDS011;10356;50.544;9.642;2023-02-15T03:23:18;22.13;;;11.93;;
20393;SDS011;10356;50.544;9.642;2023-02-15T03:25:50;22.90;;;12.57;;
20393;SDS011;10356;50.544;9.642;2023-02-15T03:28:19;24.67;;;12.83;;
20393;SDS011;10356;50.544;9.642;2023-02-15T03:30:51;25.57;;;12.87;;
20393;SDS011;10356;50.544;9.642;2023-02-15T03:33:23;24.33;;;12.67;;
20393;SDS011;10356;50.544;9.642;2023-02-15T03:35:52;26.10;;;12.77;;
20393;SDS011;10356;50.544;9.642;2023-02-15T03:38:25;29.07;;;14.07;;
20393;SDS011;10356;50.544;9.642;2023-02-15T03:40:56;21.23;;;12.17;;
20393;SDS011;10356;50.544;9.642;2023-02-15T03:43:38;25.30;;;12.93;;
20393;SDS011;10356;50.544;9.642;2023-02-15T03:46:12;26.23;;;13.40;;
20393;SDS011;10356;50.544;9.642;2023-02-15T03:48:45;25.93;;;13.00;;
20393;SDS011;10356;50.544;9.642;2023-02-15T03:51:18;25.80;;;12.33;;
20393;SDS011;10356;50.544;9.642;2023-02-15T03:53:58;27.30;;;12.90;;
20393;SDS011;10356;50.544;9.642;2023-02-15T03:56:27;26.80;;;13.07;;
20393;SDS011;10356;50.544;9.642;2023-02-15T03:58:53;26.27;;;12.57;;
20393;SDS011;10356;50.544;9.642;2023-02-15T04:01:38;22.17;;;11.83;;
20393;SDS011;10356;50.544;9.642;2023-02-15T04:04:33;18.80;;;10.97;;
20393;SDS011;10356;50.544;9.642;2023-02-15T04:07:01;26.63;;;12.80;;
20393;SDS011;10356;50.544;9.642;2023-02-15T04:09:29;27.53;;;13.50;;
20393;SDS011;10356;50.544;9.642;2023-02-15T04:12:13;25.63;;;13.60;;
20393;SDS011;10356;50.544;9.642;2023-02-15T04:14:39;22.97;;;12.47;;
20393;SDS011;10356;50.544;9.642;2023-02-15T04:17:24;23.20;;;12.63;;
20393;SDS011;10356;50.544;9.642;2023-02-15T04:19:51;23.30;;;11.80;;
20393;SDS011;10356;50.544;9.642;2023-02-15T04:22:36;25.47;;;12.57;;
20393;SDS011;10356;50.544;9.642;2023-02-15T04:25:20;22.70;;;11.83;;
20393;SDS011;10356;50.544;9.642;2023-02-15T04:27:47;23.27;;;12.00;;
20393;SDS011;10356;50.544;9.642;2023-02-15T04:30:15;23.47;;;12.80;;
20393;SDS011;10356;50.544;9.642;2023-02-15T04:32:44;26.30;;;12.23;;
20393;SDS011;10356;50.544;9.642;2023-02-15T04:35:12;24.27;;;13.33;;
20393;SDS011;10356;50.544;9.642;2023-02-15T04:37:40;22.93;;;12.10;;
20393;SDS011;10356;50.544;9.642;2023-02-15T04:40:08;25.67;;;13.97;;
20393;SDS011;10356;50.544;9.642;2023-02-15T04:42:36;23.07;;;12.30;;
20393;SDS011;10356;50.544;9.642;2023-02-15T04:45:03;24.87;;;12.87;;
20393;SDS011;10356;50.544;9.642;2023-02-15T04:47:30;24.53;;;12.40;;
20393;SDS011;10356;50.544;9.642;2023-02-15T04:49:57;25.27;;;12.70;;
20393;SDS011;10356;50.544;9.642;2023-02-15T04:52:25;23.83;;;12.07;;
20393;SDS011;10356;50.544;9.642;2023-02-15T04:54:51;23.10;;;11.77;;
20393;SDS011;10356;50.544;9.642;2023-02-15T04:57:18;22.43;;;11.67;;
20393;SDS011;10356;50.544;9.642;2023-02-15T04:59:44;25.17;;;12.17;;
20393;SDS011;10356;50.544;9.642;2023-02-15T05:02:11;25.90;;;11.73;;
20393;SDS011;10356;50.544;9.642;2023-02-15T05:04:37;22.87;;;12.03;;
20393;SDS011;10356;50.544;9.642;2023-02-15T05:07:03;25.57;;;12.50;;
20393;SDS011;10356;50.544;9.642;2023-02-15T05:09:31;24.73;;;12.23;;
20393;SDS011;10356;50.544;9.642;2023-02-15T05:11:58;29.53;;;13.23;;
20393;SDS011;10356;50.544;9.642;2023-02-15T05:14:24;24.20;;;12.30;;
20393;SDS011;10356;50.544;9.642;2023-02-15T05:16:51;25.80;;;13.10;;
20393;SDS011;10356;50.544;9.642;2023-02-15T05:19:18;25.97;;;13.00;;
20393;SDS011;10356;50.544;9.642;2023-02-15T05:21:45;26.07;;;12.70;;
20393;SDS011;10356;50.544;9.642;2023-02-15T05:24:11;24.90;;;11.97;;
20393;SDS011;10356;50.544;9.642;2023-02-15T05:26:57;23.40;;;11.47;;
20393;SDS011;10356;50.544;9.642;2023-02-15T05:29:41;24.93;;;11.63;;
20393;SDS011;10356;50.544;9.642;2023-02-15T05:32:07;23.97;;;12.37;;
20393;SDS011;10356;50.544;9.642;2023-02-15T05:34:34;22.07;;;12.00;;
20393;SDS011;10356;50.544;9.642;2023-02-15T05:37:00;24.00;;;11.80;;
20393;SDS011;10356;50.544;9.642;2023-02-15T05:39:26;24.57;;;12.07;;
20393;SDS011;10356;50.544;9.642;2023-02-15T05:41:53;23.37;;;12.20;;
20393;SDS011;10356;50.544;9.642;2023-02-15T05:44:21;23.10;;;11.37;;
20393;SDS011;10356;50.544;9.642;2023-02-15T05:46:47;22.73;;;11.27;;
20393;SDS011;10356;50.544;9.642;2023-02-15T05:49:14;22.07;;;11.03;;
20393;SDS011;10356;50.544;9.642;2023-02-15T05:51:40;23.63;;;10.63;;
20393;SDS011;10356;50.544;9.642;2023-02-15T05:54:07;22.40;;;11.43;;
20393;SDS011;10356;50.544;9.642;2023-02-15T05:56:33;23.60;;;11.97;;
20393;SDS011;10356;50.544;9.642;2023-02-15T05:59:00;22.43;;;10.53;;
20393;SDS011;10356;50.544;9.642;2023-02-15T06:01:27;23.80;;;11.40;;
20393;SDS011;10356;50.544;9.642;2023-02-15T06:03:54;24.20;;;11.87;;
20393;SDS011;10356;50.544;9.642;2023-02-15T06:06:20;26.17;;;12.13;;
20393;SDS011;10356;50.544;9.642;2023-02-15T06:08:47;23.77;;;10.83;;
20393;SDS011;10356;50.544;9.642;2023-02-15T06:11:14;25.97;;;11.97;;
20393;SDS011;10356;50.544;9.642;2023-02-15T06:13:40;24.20;;;12.00;;
20393;SDS011;10356;50.544;9.642;2023-02-15T06:16:07;23.40;;;11.33;;
20393;SDS011;10356;50.544;9.642;2023-02-15T06:18:35;27.67;;;13.47;;
20393;SDS011;10356;50.544;9.642;2023-02-15T06:21:01;27.70;;;13.07;;
20393;SDS011;10356;50.544;9.642;2023-02-15T06:23:28;25.53;;;12.70;;
20393;SDS011;10356;50.544;9.642;2023-02-15T06:25:54;24.70;;;12.07;;
20393;SDS011;10356;50.544;9.642;2023-02-15T06:28:21;23.83;;;11.50;;
20393;SDS011;10356;50.544;9.642;2023-02-15T06:30:47;21.23;;;10.83;;
20393;SDS011;10356;50.544;9.642;2023-02-15T06:33:14;23.83;;;11.53;;
20393;SDS011;10356;50.544;9.642;2023-02-15T06:35:42;25.03;;;12.10;;
20393;SDS011;10356;50.544;9.642;2023-02-15T06:38:08;25.07;;;11.20;;
20393;SDS011;10356;50.544;9.642;2023-02-15T06:40:35;27.33;;;13.13;;
20393;SDS011;10356;50.544;9.642;2023-02-15T06:43:01;22.10;;;11.70;;
20393;SDS011;10356;50.544;9.642;2023-02-15T06:45:27;24.00;;;11.90;;
20393;SDS011;10356;50.544;9.642;2023-02-15T06:47:54;18.80;;;9.90;;
20393;SDS011;10356;50.544;9.642;2023-02-15T06:50:21;23.57;;;11.40;;
20393;SDS011;10356;50.544;9.642;2023-02-15T06:52:49;22.90;;;11.50;;
20393;SDS011;10356;50.544;9.642;2023-02-15T06:55:15;23.87;;;11.33;;
20393;SDS011;10356;50.544;9.642;2023-02-15T06:57:42;22.87;;;11.07;;
20393;SDS011;10356;50.544;9.642;2023-02-15T07:00:08;22.57;;;11.10;;
20393;SDS011;10356;50.544;9.642;2023-02-15T07:02:36;23.17;;;11.67;;
20393;SDS011;10356;50.544;9.642;2023-02-15T07:05:02;21.07;;;11.20;;
20393;SDS011;10356;50.544;9.642;2023-02-15T07:07:30;21.20;;;11.03;;
20393;SDS011;10356;50.544;9.642;2023-02-15T07:09:57;21.80;;;11.27;;
20393;SDS011;10356;50.544;9.642;2023-02-15T07:12:24;20.77;;;10.87;;
20393;SDS011;10356;50.544;9.642;2023-02-15T07:15:10;26.30;;;11.40;;
20393;SDS011;10356;50.544;9.642;2023-02-15T07:17:37;22.33;;;11.00;;
20393;SDS011;10356;50.544;9.642;2023-02-15T07:20:04;22.03;;;11.13;;
20393;SDS011;10356;50.544;9.642;2023-02-15T07:22:33;23.87;;;12.10;;
20393;SDS011;10356;50.544;9.642;2023-02-15T07:25:02;21.40;;;10.67;;
20393;SDS011;10356;50.544;9.642;2023-02-15T07:27:30;21.20;;;11.07;;
20393;SDS011;10356;50.544;9.642;2023-02-15T07:29:57;21.70;;;11.17;;
20393;SDS011;10356;50.544;9.642;2023-02-15T07:32:23;22.33;;;11.23;;
20393;SDS011;10356;50.544;9.642;2023-02-15T07:34:50;22.07;;;10.60;;
20393;SDS011;10356;50.544;9.642;2023-02-15T07:37:16;21.97;;;10.60;;
20393;SDS011;10356;50.544;9.642;2023-02-15T07:39:42;23.93;;;10.83;;
20393;SDS011;10356;50.544;9.642;2023-02-15T07:42:10;24.00;;;11.33;;
20393;SDS011;10356;50.544;9.642;2023-02-15T07:44:37;24.77;;;11.53;;
20393;SDS011;10356;50.544;9.642;2023-02-15T07:47:03;23.37;;;11.90;;
20393;SDS011;10356;50.544;9.642;2023-02-15T07:49:30;26.00;;;12.00;;
20393;SDS011;10356;50.544;9.642;2023-02-15T07:51:56;23.77;;;11.83;;
20393;SDS011;10356;50.544;9.642;2023-02-15T07:54:23;29.53;;;12.93;;
20393;SDS011;10356;50.544;9.642;2023-02-15T07:56:49;26.73;;;13.03;;
20393;SDS011;10356;50.544;9.642;2023-02-15T07:59:17;26.97;;;13.77;;
20393;SDS011;10356;50.544;9.642;2023-02-15T08:01:43;23.67;;;12.27;;
20393;SDS011;10356;50.544;9.642;2023-02-15T08:04:10;23.70;;;11.80;;
20393;SDS011;10356;50.544;9.642;2023-02-15T08:06:36;27.97;;;12.63;;
20393;SDS011;10356;50.544;9.642;2023-02-15T08:09:04;24.77;;;12.60;;
20393;SDS011;10356;50.544;9.642;2023-02-15T08:11:32;24.10;;;11.87;;
20393;SDS011;10356;50.544;9.642;2023-02-15T08:14:02;24.40;;;12.13;;
20393;SDS011;10356;50.544;9.642;2023-02-15T08:16:33;24.17;;;12.27;;
20393;SDS011;10356;50.544;9.642;2023-02-15T08:19:02;21.80;;;11.20;;
20393;SDS011;10356;50.544;9.642;2023-02-15T08:21:30;21.20;;;12.10;;
20393;SDS011;10356;50.544;9.642;2023-02-15T08:23:58;21.23;;;10.50;;
20393;SDS011;10356;50.544;9.642;2023-02-15T08:26:25;22.33;;;12.00;;
20393;SDS011;10356;50.544;9.642;2023-02-15T08:28:53;23.67;;;11.93;;
20393;SDS011;10356;50.544;9.642;2023-02-15T08:31:20;21.47;;;11.80;;
20393;SDS011;10356;50.544;9.642;2023-02-15T08:33:48;23.27;;;12.07;;
20393;SDS011;10356;50.544;9.642;2023-02-15T08:36:17;22.13;;;11.67;;
20393;SDS011;10356;50.544;9.642;2023-02-15T08:38:44;22.17;;;11.30;;
20393;SDS011;10356;50.544;9.642;2023-02-15T08:41:14;23.33;;;11.30;;
20393;SDS011;10356;50.544;9.642;2023-02-15T08:43:44;21.23;;;11.40;;
20393;SDS011;10356;50.544;9.642;2023-02-15T08:46:12;25.17;;;12.90;;
20393;SDS011;10356;50.544;9.642;2023-02-15T08:48:40;23.50;;;12.80;;
20393;SDS011;10356;50.544;9.642;2023-02-15T08:51:09;22.93;;;12.23;;
20393;SDS011;10356;50.544;9.642;2023-02-15T08:53:38;26.07;;;13.67;;
20393;SDS011;10356;50.544;9.642;2023-02-15T08:56:05;25.47;;;13.53;;
20393;SDS011;10356;50.544;9.642;2023-02-15T08:58:32;25.40;;;12.83;;
20393;SDS011;10356;50.544;9.642;2023-02-15T09:00:59;25.10;;;12.30;;
20393;SDS011;10356;50.544;9.642;2023-02-15T09:03:27;23.40;;;12.30;;
20393;SDS011;10356;50.544;9.642;2023-02-15T09:05:56;23.90;;;12.17;;
20393;SDS011;10356;50.544;9.642;2023-02-15T09:08:26;25.20;;;13.10;;
20393;SDS011;10356;50.544;9.642;2023-02-15T09:10:53;26.47;;;13.30;;
20393;SDS011;10356;50.544;9.642;2023-02-15T09:13:20;25.27;;;12.83;;
20393;SDS011;10356;50.544;9.642;2023-02-15T09:15:47;27.73;;;13.97;;
20393;SDS011;10356;50.544;9.642;2023-02-15T09:18:13;27.50;;;14.00;;
20393;SDS011;10356;50.544;9.642;2023-02-15T09:20:42;24.83;;;13.97;;
20393;SDS011;10356;50.544;9.642;2023-02-15T09:23:09;25.50;;;13.80;;
20393;SDS011;10356;50.544;9.642;2023-02-15T09:25:37;29.87;;;15.83;;
20393;SDS011;10356;50.544;9.642;2023-02-15T09:28:03;46.53;;;29.83;;
20393;SDS011;10356;50.544;9.642;2023-02-15T09:30:30;28.27;;;14.30;;
20393;SDS011;10356;50.544;9.642;2023-02-15T09:32:56;26.80;;;13.17;;
20393;SDS011;10356;50.544;9.642;2023-02-15T09:35:23;26.93;;;13.70;;
20393;SDS011;10356;50.544;9.642;2023-02-15T09:37:49;29.47;;;15.90;;
20393;SDS011;10356;50.544;9.642;2023-02-15T09:40:15;27.70;;;15.37;;
20393;SDS011;10356;50.544;9.642;2023-02-15T09:42:58;28.40;;;14.83;;
20393;SDS011;10356;50.544;9.642;2023-02-15T09:45:41;26.33;;;13.93;;
20393;SDS011;10356;50.544;9.642;2023-02-15T09:48:21;27.53;;;13.10;;
20393;SDS011;10356;50.544;9.642;2023-02-15T09:51:02;26.53;;;13.87;;
20393;SDS011;10356;50.544;9.642;2023-02-15T09:53:57;24.10;;;13.07;;
20393;SDS011;10356;50.544;9.642;2023-02-15T09:56:50;26.40;;;14.10;;
20393;SDS011;10356;50.544;9.642;2023-02-15T09:59:24;28.83;;;15.00;;
20393;SDS011;10356;50.544;9.642;2023-02-15T10:02:00;24.80;;;13.13;;
20393;SDS011;10356;50.544;9.642;2023-02-15T10:04:42;27.40;;;13.87;;
20393;SDS011;10356;50.544;9.642;2023-02-15T10:07:22;24.27;;;13.03;;
20393;SDS011;10356;50.544;9.642;2023-02-15T10:10:05;23.50;;;13.47;;
20393;SDS011;10356;50.544;9.642;2023-02-15T10:12:43;22.53;;;12.67;;
20393;SDS011;10356;50.544;9.642;2023-02-15T10:15:25;23.40;;;13.13;;
20393;SDS011;10356;50.544;9.642;2023-02-15T10:18:17;23.97;;;12.07;;
20393;SDS011;10356;50.544;9.642;2023-02-15T10:20:55;22.30;;;11.90;;
20393;SDS011;10356;50.544;9.642;2023-02-15T10:23:34;22.40;;;12.67;;
20393;SDS011;10356;50.544;9.642;2023-02-15T10:26:11;21.77;;;13.40;;
20393;SDS011;10356;50.544;9.642;2023-02-15T10:28:43;21.53;;;12.63;;
20393;SDS011;10356;50.544;9.642;2023-02-15T10:31:19;20.10;;;12.10;;
20393;SDS011;10356;50.544;9.642;2023-02-15T10:33:53;22.40;;;13.10;;
20393;SDS011;10356;50.544;9.642;2023-02-15T10:36:29;21.77;;;12.83;;
20393;SDS011;10356;50.544;9.642;2023-02-15T10:39:06;19.57;;;11.53;;
20393;SDS011;10356;50.544;9.642;2023-02-15T10:41:41;20.60;;;12.00;;
20393;SDS011;10356;50.544;9.642;2023-02-15T10:44:24;20.03;;;11.83;;
20393;SDS011;10356;50.544;9.642;2023-02-15T10:47:20;18.23;;;11.00;;
20393;SDS011;10356;50.544;9.642;2023-02-15T10:50:03;19.53;;;10.83;;
20393;SDS011;10356;50.544;9.642;2023-02-15T10:52:42;18.83;;;11.50;;
20393;SDS011;10356;50.544;9.642;2023-02-15T10:55:24;17.47;;;10.70;;
20393;SDS011;10356;50.544;9.642;2023-02-15T10:58:01;20.97;;;12.33;;
20393;SDS011;10356;50.544;9.642;2023-02-15T11:00:37;20.70;;;12.37;;
20393;SDS011;10356;50.544;9.642;2023-02-15T11:03:15;145.03;;;58.17;;
20393;SDS011;10356;50.544;9.642;2023-02-15T11:05:53;96.73;;;47.23;;
20393;SDS011;10356;50.544;9.642;2023-02-15T11:08:29;53.17;;;27.50;;
20393;SDS011;10356;50.544;9.642;2023-02-15T11:10:59;16.87;;;10.00;;
20393;SDS011;10356;50.544;9.642;2023-02-15T11:13:29;32.67;;;19.07;;
20393;SDS011;10356;50.544;9.642;2023-02-15T11:16:03;60.50;;;34.93;;
20393;SDS011;10356;50.544;9.642;2023-02-15T11:18:36;53.73;;;28.97;;
20393;SDS011;10356;50.544;9.642;2023-02-15T11:21:07;23.57;;;13.37;;
20393;SDS011;10356;50.544;9.642;2023-02-15T11:23:39;19.87;;;10.90;;
20393;SDS011;10356;50.544;9.642;2023-02-15T11:26:11;19.93;;;11.83;;
20393;SDS011;10356;50.544;9.642;2023-02-15T11:28:43;20.23;;;12.17;;
20393;SDS011;10356;50.544;9.642;2023-02-15T11:31:15;23.57;;;13.03;;
20393;SDS011;10356;50.544;9.642;2023-02-15T11:33:46;20.67;;;11.53;;
20393;SDS011;10356;50.544;9.642;2023-02-15T11:36:17;23.20;;;13.73;;
20393;SDS011;10356;50.544;9.642;2023-02-15T11:38:47;19.70;;;12.00;;
20393;SDS011;10356;50.544;9.642;2023-02-15T11:41:19;21.83;;;11.63;;
20393;SDS011;10356;50.544;9.642;2023-02-15T11:43:50;18.13;;;10.80;;
20393;SDS011;10356;50.544;9.642;2023-02-15T11:46:21;22.10;;;11.47;;
20393;SDS011;10356;50.544;9.642;2023-02-15T11:48:49;20.13;;;11.83;;
20393;SDS011;10356;50.544;9.642;2023-02-15T11:51:16;20.77;;;11.73;;
20393;SDS011;10356;50.544;9.642;2023-02-15T11:53:44;18.07;;;11.20;;
20393;SDS011;10356;50.544;9.642;2023-02-15T11:56:13;20.33;;;11.97;;
20393;SDS011;10356;50.544;9.642;2023-02-15T11:58:41;19.63;;;11.60;;
20393;SDS011;10356;50.544;9.642;2023-02-15T12:01:13;22.60;;;11.50;;
20393;SDS011;10356;50.544;9.642;2023-02-15T12:03:44;19.80;;;11.67;;
20393;SDS011;10356;50.544;9.642;2023-02-15T12:06:16;19.83;;;11.37;;
20393;SDS011;10356;50.544;9.642;2023-02-15T12:08:48;18.80;;;11.50;;
20393;SDS011;10356;50.544;9.642;2023-02-15T12:11:20;19.47;;;11.30;;
20393;SDS011;10356;50.544;9.642;2023-02-15T12:13:55;19.20;;;11.37;;
20393;SDS011;10356;50.544;9.642;2023-02-15T12:16:23;20.67;;;11.73;;
20393;SDS011;10356;50.544;9.642;2023-02-15T12:18:50;18.87;;;11.63;;
20393;SDS011;10356;50.544;9.642;2023-02-15T12:21:25;20.73;;;11.60;;
20393;SDS011;10356;50.544;9.642;2023-02-15T12:23:55;22.87;;;13.13;;
20393;SDS011;10356;50.544;9.642;2023-02-15T12:26:24;20.83;;;12.00;;
20393;SDS011;10356;50.544;9.642;2023-02-15T12:28:53;20.93;;;12.47;;
20393;SDS011;10356;50.544;9.642;2023-02-15T12:31:23;19.37;;;11.97;;
20393;SDS011;10356;50.544;9.642;2023-02-15T12:33:54;21.87;;;12.27;;
20393;SDS011;10356;50.544;9.642;2023-02-15T12:36:25;19.40;;;11.77;;
20393;SDS011;10356;50.544;9.642;2023-02-15T12:39:05;21.60;;;12.57;;
20393;SDS011;10356;50.544;9.642;2023-02-15T12:41:44;20.63;;;11.63;;
20393;SDS011;10356;50.544;9.642;2023-02-15T12:44:15;23.17;;;13.60;;
20393;SDS011;10356;50.544;9.642;2023-02-15T12:46:49;20.73;;;12.33;;
20393;SDS011;10356;50.544;9.642;2023-02-15T12:49:22;23.40;;;13.20;;
20393;SDS011;10356;50.544;9.642;2023-02-15T12:51:51;21.27;;;12.60;;
20393;SDS011;10356;50.544;9.642;2023-02-15T12:54:32;19.93;;;10.93;;
20393;SDS011;10356;50.544;9.642;2023-02-15T12:57:15;21.73;;;12.37;;
20393;SDS011;10356;50.544;9.642;2023-02-15T12:59:51;22.30;;;12.97;;
20393;SDS011;10356;50.544;9.642;2023-02-15T13:02:21;22.57;;;12.67;;
20393;SDS011;10356;50.544;9.642;2023-02-15T13:04:51;21.33;;;12.47;;
20393;SDS011;10356;50.544;9.642;2023-02-15T13:07:20;21.73;;;13.40;;
20393;SDS011;10356;50.544;9.642;2023-02-15T13:09:47;20.13;;;12.20;;
20393;SDS011;10356;50.544;9.642;2023-02-15T13:12:18;26.27;;;13.03;;
20393;SDS011;10356;50.544;9.642;2023-02-15T13:14:48;23.63;;;13.03;;
20393;SDS011;10356;50.544;9.642;2023-02-15T13:17:17;26.13;;;14.70;;
20393;SDS011;10356;50.544;9.642;2023-02-15T13:19:49;21.00;;;13.20;;
20393;SDS011;10356;50.544;9.642;2023-02-15T13:22:21;19.53;;;12.27;;
20393;SDS011;10356;50.544;9.642;2023-02-15T13:24:53;21.70;;;12.80;;
20393;SDS011;10356;50.544;9.642;2023-02-15T13:27:23;19.37;;;12.73;;
20393;SDS011;10356;50.544;9.642;2023-02-15T13:29:56;19.63;;;11.97;;
20393;SDS011;10356;50.544;9.642;2023-02-15T13:32:26;24.47;;;14.77;;
20393;SDS011;10356;50.544;9.642;2023-02-15T13:34:56;21.43;;;12.83;;
20393;SDS011;10356;50.544;9.642;2023-02-15T13:37:34;28.37;;;17.53;;
20393;SDS011;10356;50.544;9.642;2023-02-15T13:40:12;24.23;;;14.73;;
20393;SDS011;10356;50.544;9.642;2023-02-15T13:42:44;32.90;;;18.90;;
20393;SDS011;10356;50.544;9.642;2023-02-15T13:45:21;26.03;;;16.47;;
20393;SDS011;10356;50.544;9.642;2023-02-15T13:47:59;21.87;;;14.50;;
20393;SDS011;10356;50.544;9.642;2023-02-15T13:50:39;20.40;;;12.73;;
20393;SDS011;10356;50.544;9.642;2023-02-15T13:53:26;18.40;;;12.60;;
20393;SDS011;10356;50.544;9.642;2023-02-15T13:56:04;18.03;;;11.13;;
20393;SDS011;10356;50.544;9.642;2023-02-15T14:01:44;18.30;;;11.60;;
20393;SDS011;10356;50.544;9.642;2023-02-15T14:04:19;18.93;;;10.73;;
20393;SDS011;10356;50.544;9.642;2023-02-15T14:07:05;20.20;;;12.23;;
20393;SDS011;10356;50.544;9.642;2023-02-15T14:09:53;20.83;;;12.20;;
20393;SDS011;10356;50.544;9.642;2023-02-15T14:12:40;18.33;;;11.50;;
20393;SDS011;10356;50.544;9.642;2023-02-15T14:15:26;18.57;;;11.93;;
20393;SDS011;10356;50.544;9.642;2023-02-15T14:18:00;15.73;;;11.07;;
20393;SDS011;10356;50.544;9.642;2023-02-15T14:20:44;15.73;;;10.37;;
20393;SDS011;10356;50.544;9.642;2023-02-15T14:23:25;17.60;;;11.53;;
20393;SDS011;10356;50.544;9.642;2023-02-15T14:26:06;19.10;;;11.63;;
20393;SDS011;10356;50.544;9.642;2023-02-15T14:28:41;18.03;;;11.80;;
20393;SDS011;10356;50.544;9.642;2023-02-15T14:31:12;19.03;;;12.00;;
20393;SDS011;10356;50.544;9.642;2023-02-15T14:33:42;18.90;;;12.50;;
20393;SDS011;10356;50.544;9.642;2023-02-15T14:36:18;20.13;;;12.33;;
20393;SDS011;10356;50.544;9.642;2023-02-15T14:38:48;18.17;;;11.30;;
20393;SDS011;10356;50.544;9.642;2023-02-15T14:41:25;20.00;;;11.80;;
20393;SDS011;10356;50.544;9.642;2023-02-15T14:43:59;19.20;;;12.07;;
20393;SDS011;10356;50.544;9.642;2023-02-15T14:46:34;18.90;;;11.27;;
20393;SDS011;10356;50.544;9.642;2023-02-15T14:49:09;19.37;;;11.73;;
20393;SDS011;10356;50.544;9.642;2023-02-15T14:51:53;19.73;;;12.13;;
20393;SDS011;10356;50.544;9.642;2023-02-15T14:57:27;75.40;;;39.57;;